sensor_id;sensor_type;location;lat;lon;timestamp;pressure;altitude;pressure_sealevel;temperature;humidity
59411;BME280;45215;32.610;-115.482;2022-09-12T00:00:43;101155.94;;;24.61;54.96
59411;BME280;45215;32.610;-115.482;2022-09-12T00:03:09;101148.81;;;24.60;54.69
59411;BME280;45215;32.610;-115.482;2022-09-12T00:05:40;101163.03;;;24.62;54.57
59411;BME280;45215;32.610;-115.482;2022-09-12T00:08:07;101153.03;;;24.62;54.63
59411;BME280;45215;32.610;-115.482;2022-09-12T00:10:40;101151.78;;;24.65;54.96
59411;BME280;45215;32.610;-115.482;2022-09-12T00:13:07;101157.22;;;24.65;54.60
59411;BME280;45215;32.610;-115.482;2022-09-12T00:15:39;101152.44;;;24.67;54.23
59411;BME280;45215;32.610;-115.482;2022-09-12T00:18:07;101141.34;;;24.62;54.62
59411;BME280;45215;32.610;-115.482;2022-09-12T00:20:33;101148.91;;;24.66;54.64
59411;BME280;45215;32.610;-115.482;2022-09-12T00:22:59;101124.56;;;24.51;53.96
59411;BME280;45215;32.610;-115.482;2022-09-12T00:25:26;101139.28;;;24.64;54.50
59411;BME280;45215;32.610;-115.482;2022-09-12T00:27:55;101145.16;;;24.67;54.12
59411;BME280;45215;32.610;-115.482;2022-09-12T00:30:21;101149.34;;;24.70;54.26
59411;BME280;45215;32.610;-115.482;2022-09-12T00:32:48;101149.34;;;24.70;54.15
59411;BME280;45215;32.610;-115.482;2022-09-12T00:35:16;101125.47;;;24.59;54.29
59411;BME280;45215;32.610;-115.482;2022-09-12T00:37:42;101146.88;;;24.75;53.62
59411;BME280;45215;32.610;-115.482;2022-09-12T00:40:08;101142.06;;;24.77;54.04
59411;BME280;45215;32.610;-115.482;2022-09-12T00:42:35;101144.78;;;24.77;53.84
59411;BME280;45215;32.610;-115.482;2022-09-12T00:45:01;101147.50;;;24.77;54.04
59411;BME280;45215;32.610;-115.482;2022-09-12T00:47:28;101141.50;;;24.82;53.57
59411;BME280;45215;32.610;-115.482;2022-09-12T00:50:11;101138.13;;;24.80;53.59
59411;BME280;45215;32.610;-115.482;2022-09-12T00:52:54;101134.00;;;24.84;53.80
59411;BME280;45215;32.610;-115.482;2022-09-12T00:55:27;101132.50;;;24.81;53.25
59411;BME280;45215;32.610;-115.482;2022-09-12T00:58:12;101137.69;;;24.05;47.65
59411;BME280;45215;32.610;-115.482;2022-09-12T01:00:39;101133.63;;;23.28;45.34
59411;BME280;45215;32.610;-115.482;2022-09-12T01:03:11;101128.41;;;22.82;46.44
59411;BME280;45215;32.610;-115.482;2022-09-12T01:06:07;101131.78;;;22.99;52.92
59411;BME280;45215;32.610;-115.482;2022-09-12T01:08:35;101131.88;;;22.91;48.81
59411;BME280;45215;32.610;-115.482;2022-09-12T01:11:03;101127.31;;;22.54;46.13
59411;BME280;45215;32.610;-115.482;2022-09-12T01:13:32;101134.84;;;22.58;52.50
59411;BME280;45215;32.610;-115.482;2022-09-12T01:15:59;101136.06;;;22.79;54.25
59411;BME280;45215;32.610;-115.482;2022-09-12T01:26:56;101130.47;;;22.80;54.29
59411;BME280;45215;32.610;-115.482;2022-09-12T01:32:56;101132.91;;;22.52;53.78
59411;BME280;45215;32.610;-115.482;2022-09-12T01:35:31;101141.66;;;22.77;55.34
59411;BME280;45215;32.610;-115.482;2022-09-12T01:40:44;101128.00;;;22.33;50.47
59411;BME280;45215;32.610;-115.482;2022-09-12T01:43:23;101137.31;;;22.53;54.71
59411;BME280;45215;32.610;-115.482;2022-09-12T01:46:12;101137.81;;;22.71;56.08
59411;BME280;45215;32.610;-115.482;2022-09-12T01:48:55;101126.66;;;22.51;50.89
59411;BME280;45215;32.610;-115.482;2022-09-12T01:51:26;101133.41;;;22.33;52.20
59411;BME280;45215;32.610;-115.482;2022-09-12T01:54:19;101130.84;;;22.54;55.15
59411;BME280;45215;32.610;-115.482;2022-09-12T01:56:52;101130.00;;;22.77;56.76
59411;BME280;45215;32.610;-115.482;2022-09-12T01:59:47;101124.22;;;22.42;49.63
59411;BME280;45215;32.610;-115.482;2022-09-12T02:02:21;101127.00;;;22.34;53.28
59411;BME280;45215;32.610;-115.482;2022-09-12T02:07:25;101121.41;;;22.73;56.14
59411;BME280;45215;32.610;-115.482;2022-09-12T02:10:13;101102.53;;;22.27;49.29
59411;BME280;45215;32.610;-115.482;2022-09-12T02:12:47;101131.66;;;22.40;54.16
59411;BME280;45215;32.610;-115.482;2022-09-12T02:15:19;101122.00;;;22.60;56.01
59411;BME280;45215;32.610;-115.482;2022-09-12T02:17:49;101132.03;;;22.75;56.92
59411;BME280;45215;32.610;-115.482;2022-09-12T02:20:26;101122.44;;;22.49;50.60
59411;BME280;45215;32.610;-115.482;2022-09-12T02:22:56;101117.06;;;22.26;53.49
59411;BME280;45215;32.610;-115.482;2022-09-12T02:25:24;101124.78;;;22.52;55.71
59411;BME280;45215;32.610;-115.482;2022-09-12T02:28:00;101125.69;;;22.67;56.75
59411;BME280;45215;32.610;-115.482;2022-09-12T02:30:38;101114.91;;;22.44;50.93
59411;BME280;45215;32.610;-115.482;2022-09-12T02:35:52;101116.03;;;22.50;55.84
59411;BME280;45215;32.610;-115.482;2022-09-12T02:40:58;101115.06;;;22.43;50.83
59411;BME280;45215;32.610;-115.482;2022-09-12T02:43:24;101121.34;;;22.20;53.11
59411;BME280;45215;32.610;-115.482;2022-09-12T02:45:50;101118.69;;;22.35;55.64
59411;BME280;45215;32.610;-115.482;2022-09-12T02:48:27;101127.63;;;22.59;57.04
59411;BME280;45215;32.610;-115.482;2022-09-12T02:50:55;101128.81;;;22.56;53.87
59411;BME280;45215;32.610;-115.482;2022-09-12T02:53:22;101132.00;;;22.22;51.30
59411;BME280;45215;32.610;-115.482;2022-09-12T02:55:48;101136.75;;;22.35;55.45
59411;BME280;45215;32.610;-115.482;2022-09-12T02:58:19;101147.91;;;22.78;58.28
59411;BME280;45215;32.610;-115.482;2022-09-12T03:00:53;101143.44;;;22.85;57.96
59411;BME280;45215;32.610;-115.482;2022-09-12T03:03:37;101157.06;;;23.06;58.96
59411;BME280;45215;32.610;-115.482;2022-09-12T03:09:19;101157.25;;;23.20;60.30
59411;BME280;45215;32.610;-115.482;2022-09-12T03:12:08;101161.91;;;23.26;60.38
59411;BME280;45215;32.610;-115.482;2022-09-12T03:17:37;101157.69;;;23.38;60.83
59411;BME280;45215;32.610;-115.482;2022-09-12T03:20:59;101164.22;;;23.44;60.75
59411;BME280;45215;32.610;-115.482;2022-09-12T03:23:24;101166.03;;;23.51;60.15
59411;BME280;45215;32.610;-115.482;2022-09-12T03:25:58;101167.81;;;23.59;60.28
59411;BME280;45215;32.610;-115.482;2022-09-12T03:28:26;101160.50;;;23.59;59.80
59411;BME280;45215;32.610;-115.482;2022-09-12T03:30:53;101172.34;;;23.73;59.71
59411;BME280;45215;32.610;-115.482;2022-09-12T03:33:22;101173.63;;;23.77;59.44
59411;BME280;45215;32.610;-115.482;2022-09-12T03:35:50;101168.03;;;23.79;58.92
59411;BME280;45215;32.610;-115.482;2022-09-12T03:38:17;101182.34;;;23.58;53.81
59411;BME280;45215;32.610;-115.482;2022-09-12T03:40:43;101173.19;;;22.85;50.19
59411;BME280;45215;32.610;-115.482;2022-09-12T03:43:11;101179.06;;;22.27;47.90
59411;BME280;45215;32.610;-115.482;2022-09-12T03:45:37;101176.94;;;21.83;47.40
59411;BME280;45215;32.610;-115.482;2022-09-12T03:48:04;101177.91;;;21.99;53.52
59411;BME280;45215;32.610;-115.482;2022-09-12T03:50:31;101181.25;;;22.01;48.98
59411;BME280;45215;32.610;-115.482;2022-09-12T03:53:01;101184.25;;;21.75;46.27
59411;BME280;45215;32.610;-115.482;2022-09-12T03:55:27;101184.13;;;21.68;49.92
59411;BME280;45215;32.610;-115.482;2022-09-12T03:57:54;101190.91;;;21.95;52.44
59411;BME280;45215;32.610;-115.482;2022-09-12T04:00:21;101196.22;;;21.80;47.11
59411;BME280;45215;32.610;-115.482;2022-09-12T04:02:47;101174.41;;;21.51;45.86
59411;BME280;45215;32.610;-115.482;2022-09-12T04:05:13;101175.03;;;21.61;51.14
59411;BME280;45215;32.610;-115.482;2022-09-12T04:07:39;101194.88;;;21.76;48.58
59411;BME280;45215;32.610;-115.482;2022-09-12T04:10:06;101190.91;;;21.56;45.26
59411;BME280;45215;32.610;-115.482;2022-09-12T04:12:32;101193.16;;;21.44;47.88
59411;BME280;45215;32.610;-115.482;2022-09-12T04:15:00;101196.25;;;21.72;51.53
59411;BME280;45215;32.610;-115.482;2022-09-12T04:17:26;101189.66;;;21.75;48.24
59411;BME280;45215;32.610;-115.482;2022-09-12T04:19:52;101203.41;;;21.57;45.40
59411;BME280;45215;32.610;-115.482;2022-09-12T04:22:18;101202.06;;;21.53;48.48
59411;BME280;45215;32.610;-115.482;2022-09-12T04:24:45;101206.69;;;21.75;51.17
59411;BME280;45215;32.610;-115.482;2022-09-12T04:27:11;101208.03;;;21.79;47.68
59411;BME280;45215;32.610;-115.482;2022-09-12T04:29:37;101209.81;;;21.56;45.00
59411;BME280;45215;32.610;-115.482;2022-09-12T04:32:04;101187.25;;;21.49;49.09
59411;BME280;45215;32.610;-115.482;2022-09-12T04:34:30;101210.91;;;21.78;51.98
59411;BME280;45215;32.610;-115.482;2022-09-12T04:36:57;101212.09;;;21.75;47.37
59411;BME280;45215;32.610;-115.482;2022-09-12T04:39:23;101210.84;;;21.55;44.58
59411;BME280;45215;32.610;-115.482;2022-09-12T04:41:49;101199.91;;;21.48;48.25
59411;BME280;45215;32.610;-115.482;2022-09-12T04:44:16;101209.06;;;21.70;48.44
59411;BME280;45215;32.610;-115.482;2022-09-12T04:46:45;101214.38;;;21.95;48.11
59411;BME280;45215;32.610;-115.482;2022-09-12T04:49:12;101208.00;;;22.19;49.04
59411;BME280;45215;32.610;-115.482;2022-09-12T04:51:41;101192.28;;;22.22;49.60
59411;BME280;45215;32.610;-115.482;2022-09-12T04:54:13;101213.63;;;22.55;50.23
59411;BME280;45215;32.610;-115.482;2022-09-12T04:56:42;101217.66;;;22.67;50.21
59411;BME280;45215;32.610;-115.482;2022-09-12T04:59:10;101216.72;;;22.75;51.49
59411;BME280;45215;32.610;-115.482;2022-09-12T05:01:37;101207.41;;;22.78;51.75
59411;BME280;45215;32.610;-115.482;2022-09-12T05:04:03;101209.66;;;22.89;52.37
59411;BME280;45215;32.610;-115.482;2022-09-12T05:06:34;101197.63;;;22.91;52.12
59411;BME280;45215;32.610;-115.482;2022-09-12T05:09:03;101212.69;;;23.09;52.48
59411;BME280;45215;32.610;-115.482;2022-09-12T05:11:32;101215.69;;;23.14;52.89
59411;BME280;45215;32.610;-115.482;2022-09-12T05:13:58;101209.94;;;22.33;48.43
59411;BME280;45215;32.610;-115.482;2022-09-12T05:16:28;101211.91;;;21.85;46.29
59411;BME280;45215;32.610;-115.482;2022-09-12T05:18:57;101219.66;;;21.88;51.99
59411;BME280;45215;32.610;-115.482;2022-09-12T05:21:24;101213.09;;;22.14;54.39
59411;BME280;45215;32.610;-115.482;2022-09-12T05:23:52;101216.59;;;22.22;50.97
59411;BME280;45215;32.610;-115.482;2022-09-12T05:26:19;101194.34;;;21.81;48.94
59411;BME280;45215;32.610;-115.482;2022-09-12T05:28:47;101208.72;;;22.13;53.65
59411;BME280;45215;32.610;-115.482;2022-09-12T05:31:17;101222.06;;;22.37;55.18
59411;BME280;45215;32.610;-115.482;2022-09-12T05:33:46;101218.75;;;22.27;50.58
59411;BME280;45215;32.610;-115.482;2022-09-12T05:36:23;101219.59;;;22.04;51.42
59411;BME280;45215;32.610;-115.482;2022-09-12T05:38:50;101221.28;;;22.28;54.55
59411;BME280;45215;32.610;-115.482;2022-09-12T05:41:25;101220.34;;;22.44;56.62
59411;BME280;45215;32.610;-115.482;2022-09-12T05:43:56;101220.75;;;22.10;50.51
59411;BME280;45215;32.610;-115.482;2022-09-12T05:46:28;101225.91;;;21.80;53.63
59411;BME280;45215;32.610;-115.482;2022-09-12T05:48:55;101218.44;;;21.99;56.44
59411;BME280;45215;32.610;-115.482;2022-09-12T05:51:24;101219.31;;;22.22;57.42
59411;BME280;45215;32.610;-115.482;2022-09-12T05:53:54;101218.16;;;22.40;58.03
59411;BME280;45215;32.610;-115.482;2022-09-12T05:56:26;101201.31;;;22.06;52.06
59411;BME280;45215;32.610;-115.482;2022-09-12T05:59:00;101197.94;;;21.73;54.48
59411;BME280;45215;32.610;-115.482;2022-09-12T06:01:28;101214.19;;;22.04;57.50
59411;BME280;45215;32.610;-115.482;2022-09-12T06:03:56;101219.66;;;22.19;58.73
59411;BME280;45215;32.610;-115.482;2022-09-12T06:06:26;101225.66;;;22.29;56.52
59411;BME280;45215;32.610;-115.482;2022-09-12T06:08:57;101217.50;;;21.75;52.22
59411;BME280;45215;32.610;-115.482;2022-09-12T06:11:26;101218.28;;;21.92;57.26
59411;BME280;45215;32.610;-115.482;2022-09-12T06:13:54;101200.16;;;22.01;58.29
59411;BME280;45215;32.610;-115.482;2022-09-12T06:16:23;101215.50;;;22.32;59.10
59411;BME280;45215;32.610;-115.482;2022-09-12T06:18:54;101216.63;;;21.91;52.18
59411;BME280;45215;32.610;-115.482;2022-09-12T06:21:22;101217.50;;;21.75;56.07
59411;BME280;45215;32.610;-115.482;2022-09-12T06:23:49;101219.75;;;22.03;58.49
59411;BME280;45215;32.610;-115.482;2022-09-12T06:26:17;101226.75;;;22.20;59.35
59411;BME280;45215;32.610;-115.482;2022-09-12T06:28:46;101192.09;;;21.93;54.30
59411;BME280;45215;32.610;-115.482;2022-09-12T06:31:16;101217.88;;;21.64;53.65
59411;BME280;45215;32.610;-115.482;2022-09-12T06:33:45;101229.44;;;21.89;57.40
59411;BME280;45215;32.610;-115.482;2022-09-12T06:36:19;101202.56;;;21.96;58.68
59411;BME280;45215;32.610;-115.482;2022-09-12T06:38:46;101221.69;;;22.17;56.76
59411;BME280;45215;32.610;-115.482;2022-09-12T06:41:14;101208.47;;;21.60;51.90
59411;BME280;45215;32.610;-115.482;2022-09-12T06:43:41;101215.34;;;21.71;57.34
59411;BME280;45215;32.610;-115.482;2022-09-12T06:46:08;101225.69;;;21.98;58.45
59411;BME280;45215;32.610;-115.482;2022-09-12T06:48:35;101223.38;;;22.18;59.39
59411;BME280;45215;32.610;-115.482;2022-09-12T06:51:04;101209.78;;;22.03;54.51
59411;BME280;45215;32.610;-115.482;2022-09-12T06:53:33;101210.84;;;21.55;53.35
59411;BME280;45215;32.610;-115.482;2022-09-12T06:56:30;101212.53;;;21.95;57.67
59411;BME280;45215;32.610;-115.482;2022-09-12T06:58:57;101225.38;;;22.24;59.46
59411;BME280;45215;32.610;-115.482;2022-09-12T07:01:26;101215.63;;;22.15;54.14
59411;BME280;45215;32.610;-115.482;2022-09-12T07:03:55;101205.34;;;21.79;54.34
59411;BME280;45215;32.610;-115.482;2022-09-12T07:06:25;101209.41;;;22.06;57.74
59411;BME280;45215;32.610;-115.482;2022-09-12T07:09:00;101216.91;;;22.27;58.48
59411;BME280;45215;32.610;-115.482;2022-09-12T07:11:29;101206.09;;;22.27;55.34
59411;BME280;45215;32.610;-115.482;2022-09-12T07:14:00;101196.69;;;21.84;52.58
59411;BME280;45215;32.610;-115.482;2022-09-12T07:16:27;101199.22;;;21.94;56.95
59411;BME280;45215;32.610;-115.482;2022-09-12T07:18:58;101202.41;;;22.20;58.39
59411;BME280;45215;32.610;-115.482;2022-09-12T07:21:26;101205.22;;;22.27;56.02
59411;BME280;45215;32.610;-115.482;2022-09-12T07:23:52;101203.78;;;21.85;52.52
59411;BME280;45215;32.610;-115.482;2022-09-12T07:26:21;101202.22;;;21.99;56.66
59411;BME280;45215;32.610;-115.482;2022-09-12T07:28:51;101201.75;;;22.18;58.05
59411;BME280;45215;32.610;-115.482;2022-09-12T07:31:22;101203.31;;;22.36;58.51
59411;BME280;45215;32.610;-115.482;2022-09-12T07:33:50;101204.31;;;21.89;51.13
59411;BME280;45215;32.610;-115.482;2022-09-12T07:36:19;101201.59;;;21.80;56.00
59411;BME280;45215;32.610;-115.482;2022-09-12T07:38:45;101177.09;;;21.90;57.63
59411;BME280;45215;32.610;-115.482;2022-09-12T07:41:12;101200.03;;;22.25;58.73
59411;BME280;45215;32.610;-115.482;2022-09-12T07:43:38;101192.75;;;22.03;53.18
59411;BME280;45215;32.610;-115.482;2022-09-12T07:46:05;101181.75;;;21.73;54.67
59411;BME280;45215;32.610;-115.482;2022-09-12T07:48:31;101185.81;;;22.00;57.59
59411;BME280;45215;32.610;-115.482;2022-09-12T07:51:02;101188.53;;;22.23;58.86
59411;BME280;45215;32.610;-115.482;2022-09-12T07:53:39;101184.22;;;22.14;54.08
59411;BME280;45215;32.610;-115.482;2022-09-12T07:56:07;101183.38;;;21.82;53.94
59411;BME280;45215;32.610;-115.482;2022-09-12T07:58:36;101175.53;;;21.96;57.70
59411;BME280;45215;32.610;-115.482;2022-09-12T08:01:04;101192.44;;;22.21;58.84
59411;BME280;45215;32.610;-115.482;2022-09-12T08:03:31;101183.13;;;22.23;56.53
59411;BME280;45215;32.610;-115.482;2022-09-12T08:06:08;101177.31;;;21.80;52.83
59411;BME280;45215;32.610;-115.482;2022-09-12T08:08:36;101185.50;;;21.95;57.05
59411;BME280;45215;32.610;-115.482;2022-09-12T08:11:06;101176.28;;;22.13;58.23
59411;BME280;45215;32.610;-115.482;2022-09-12T08:13:34;101168.13;;;22.21;56.63
59411;BME280;45215;32.610;-115.482;2022-09-12T08:16:12;101171.91;;;21.80;52.38
59411;BME280;45215;32.610;-115.482;2022-09-12T08:18:39;101154.66;;;21.81;57.38
59411;BME280;45215;32.610;-115.482;2022-09-12T08:21:17;101177.63;;;22.17;58.34
59411;BME280;45215;32.610;-115.482;2022-09-12T08:23:45;101167.22;;;22.28;58.68
59411;BME280;45215;32.610;-115.482;2022-09-12T08:26:12;101145.13;;;21.71;51.62
59411;BME280;45215;32.610;-115.482;2022-09-12T08:28:39;101169.88;;;21.82;56.27
59411;BME280;45215;32.610;-115.482;2022-09-12T08:31:14;101146.19;;;21.93;58.32
59411;BME280;45215;32.610;-115.482;2022-09-12T08:33:41;101164.06;;;22.25;58.71
59411;BME280;45215;32.610;-115.482;2022-09-12T08:36:18;101170.75;;;22.06;52.79
59411;BME280;45215;32.610;-115.482;2022-09-12T08:38:48;101162.28;;;21.78;55.17
59411;BME280;45215;32.610;-115.482;2022-09-12T08:46:41;101130.28;;;21.98;53.99
59411;BME280;45215;32.610;-115.482;2022-09-12T08:49:14;101151.50;;;21.78;54.98
59411;BME280;45215;32.610;-115.482;2022-09-12T08:51:45;101145.50;;;21.99;58.02
59411;BME280;45215;32.610;-115.482;2022-09-12T08:54:20;101141.47;;;22.18;58.85
59411;BME280;45215;32.610;-115.482;2022-09-12T08:56:48;101128.16;;;22.16;55.94
59411;BME280;45215;32.610;-115.482;2022-09-12T08:59:16;101128.63;;;21.66;53.11
59411;BME280;45215;32.610;-115.482;2022-09-12T09:01:44;101142.50;;;21.86;57.51
59411;BME280;45215;32.610;-115.482;2022-09-12T09:07:27;101143.75;;;22.29;58.18
59411;BME280;45215;32.610;-115.482;2022-09-12T09:13:02;101149.63;;;21.87;57.66
59411;BME280;45215;32.610;-115.482;2022-09-12T09:15:45;101150.13;;;22.13;59.11
59411;BME280;45215;32.610;-115.482;2022-09-12T09:18:21;101129.66;;;22.19;59.22
59411;BME280;45215;32.610;-115.482;2022-09-12T09:21:04;101154.19;;;21.78;52.28
59411;BME280;45215;32.610;-115.482;2022-09-12T09:23:39;101157.03;;;21.84;57.20
59411;BME280;45215;32.610;-115.482;2022-09-12T09:29:21;101163.31;;;22.31;59.47
59411;BME280;45215;32.610;-115.482;2022-09-12T09:31:52;101157.88;;;21.85;52.46
59411;BME280;45215;32.610;-115.482;2022-09-12T09:34:21;101161.81;;;21.74;56.67
59411;BME280;45215;32.610;-115.482;2022-09-12T09:36:51;101166.91;;;22.00;58.72
59411;BME280;45215;32.610;-115.482;2022-09-12T09:44:29;101144.25;;;21.70;53.51
59411;BME280;45215;32.610;-115.482;2022-09-12T09:46:57;101129.06;;;21.77;58.17
59411;BME280;45215;32.610;-115.482;2022-09-12T09:49:28;101130.28;;;21.98;59.28
59411;BME280;45215;32.610;-115.482;2022-09-12T09:51:56;101151.19;;;22.27;59.74
59411;BME280;45215;32.610;-115.482;2022-09-12T09:56:58;101152.31;;;21.78;56.79
59411;BME280;45215;32.610;-115.482;2022-09-12T09:59:32;101153.41;;;22.00;59.07
59411;BME280;45215;32.610;-115.482;2022-09-12T10:02:17;101152.28;;;22.18;59.32
59411;BME280;45215;32.610;-115.482;2022-09-12T10:04:55;101149.94;;;22.15;55.23
59411;BME280;45215;32.610;-115.482;2022-09-12T10:07:23;101146.97;;;21.70;54.71
59411;BME280;45215;32.610;-115.482;2022-09-12T10:10:14;101147.91;;;21.94;58.62
59411;BME280;45215;32.610;-115.482;2022-09-12T10:12:42;101139.47;;;22.12;59.45
59411;BME280;45215;32.610;-115.482;2022-09-12T10:15:22;101144.56;;;22.29;59.40
59411;BME280;45215;32.610;-115.482;2022-09-12T10:17:51;101133.56;;;21.93;53.12
59411;BME280;45215;32.610;-115.482;2022-09-12T10:20:41;101148.97;;;21.76;56.90
59411;BME280;45215;32.610;-115.482;2022-09-12T10:25:51;101136.06;;;22.18;59.60
59411;BME280;45215;32.610;-115.482;2022-09-12T10:28:24;101133.41;;;22.33;59.70
59411;BME280;45215;32.610;-115.482;2022-09-12T10:30:54;101110.59;;;21.58;52.15
59411;BME280;45215;32.610;-115.482;2022-09-12T10:33:23;101122.03;;;21.68;57.50
59411;BME280;45215;32.610;-115.482;2022-09-12T10:35:52;101129.28;;;21.99;58.88
59411;BME280;45215;32.610;-115.482;2022-09-12T10:38:25;101135.22;;;22.17;59.61
59411;BME280;45215;32.610;-115.482;2022-09-12T10:41:00;101142.06;;;22.28;57.60
59411;BME280;45215;32.610;-115.482;2022-09-12T10:43:36;101132.63;;;21.70;53.94
59411;BME280;45215;32.610;-115.482;2022-09-12T10:48:44;101152.16;;;22.11;59.49
59411;BME280;45215;32.610;-115.482;2022-09-12T10:53:51;101148.78;;;22.09;54.57
59411;BME280;45215;32.610;-115.482;2022-09-12T10:56:24;101156.44;;;21.66;55.78
59411;BME280;45215;32.610;-115.482;2022-09-12T11:07:28;101174.84;;;21.71;53.79
59411;BME280;45215;32.610;-115.482;2022-09-12T11:18:41;101164.31;;;21.76;52.77
59411;BME280;45215;32.610;-115.482;2022-09-12T11:43:36;101183.09;;;21.69;55.64
59411;BME280;45215;32.610;-115.482;2022-09-12T11:46:16;101174.59;;;21.89;59.32
59411;BME280;45215;32.610;-115.482;2022-09-12T11:51:54;101197.31;;;22.25;60.02
59411;BME280;45215;32.610;-115.482;2022-09-12T11:54:51;101196.94;;;21.66;53.49
59411;BME280;45215;32.610;-115.482;2022-09-12T11:57:44;101198.56;;;21.83;59.13
59411;BME280;45215;32.610;-115.482;2022-09-12T12:00:23;101214.00;;;22.06;60.02
59411;BME280;45215;32.610;-115.482;2022-09-12T12:03:42;101207.66;;;22.22;60.63
59411;BME280;45215;32.610;-115.482;2022-09-12T12:08:41;101213.44;;;21.79;58.23
59411;BME280;45215;32.610;-115.482;2022-09-12T12:11:09;101216.88;;;22.04;59.88
59411;BME280;45215;32.610;-115.482;2022-09-12T12:13:44;101217.59;;;22.21;60.46
59411;BME280;45215;32.610;-115.482;2022-09-12T12:16:24;101226.53;;;22.30;58.15
59411;BME280;45215;32.610;-115.482;2022-09-12T12:18:55;101221.56;;;21.71;53.86
59411;BME280;45215;32.610;-115.482;2022-09-12T12:27:04;101233.13;;;22.27;60.46
59411;BME280;45215;32.610;-115.482;2022-09-12T12:34:37;101221.34;;;21.89;60.04
59411;BME280;45215;32.610;-115.482;2022-09-12T12:45:43;101236.84;;;21.95;58.84
59411;BME280;45215;32.610;-115.482;2022-09-12T12:47:51;101238.75;;;22.18;60.19
59411;BME280;45215;32.610;-115.482;2022-09-12T12:58:32;101245.09;;;22.02;60.14
59411;BME280;45215;32.610;-115.482;2022-09-12T13:01:17;101262.19;;;22.25;60.42
59411;BME280;45215;32.610;-115.482;2022-09-12T13:06:37;101255.63;;;21.89;58.52
59411;BME280;45215;32.610;-115.482;2022-09-12T13:09:25;101257.56;;;22.03;60.48
59411;BME280;45215;32.610;-115.482;2022-09-12T13:12:00;101260.50;;;22.24;60.80
59411;BME280;45215;32.610;-115.482;2022-09-12T13:17:56;101257.66;;;21.70;58.07
59411;BME280;45215;32.610;-115.482;2022-09-12T13:22:47;101279.94;;;22.20;60.74
59411;BME280;45215;32.610;-115.482;2022-09-12T13:30:47;101301.03;;;21.93;60.10
59411;BME280;45215;32.610;-115.482;2022-09-12T13:33:45;101293.97;;;22.15;61.00
59411;BME280;45215;32.610;-115.482;2022-09-12T13:44:57;101305.47;;;22.17;60.41
59411;BME280;45215;32.610;-115.482;2022-09-12T13:47:31;101309.75;;;22.35;61.02
59411;BME280;45215;32.610;-115.482;2022-09-12T13:50:02;101290.34;;;22.00;55.62
59411;BME280;45215;32.610;-115.482;2022-09-12T13:52:32;101302.38;;;21.81;57.97
59411;BME280;45215;32.610;-115.482;2022-09-12T13:55:04;101311.59;;;22.03;59.88
59411;BME280;45215;32.610;-115.482;2022-09-12T13:57:36;101307.81;;;22.20;61.08
59411;BME280;45215;32.610;-115.482;2022-09-12T14:02:35;101310.09;;;22.00;54.79
59411;BME280;45215;32.610;-115.482;2022-09-12T14:05:32;101307.41;;;21.84;57.61
59411;BME280;45215;32.610;-115.482;2022-09-12T14:08:01;101303.19;;;21.98;60.37
59411;BME280;45215;32.610;-115.482;2022-09-12T14:10:34;101328.72;;;22.26;60.49
59411;BME280;45215;32.610;-115.482;2022-09-12T14:13:03;101327.31;;;22.39;61.16
59411;BME280;45215;32.610;-115.482;2022-09-12T14:15:36;101329.19;;;21.99;53.53
59411;BME280;45215;32.610;-115.482;2022-09-12T14:18:04;101342.38;;;21.86;58.00
59411;BME280;45215;32.610;-115.482;2022-09-12T14:20:36;101337.91;;;22.09;60.33
59411;BME280;45215;32.610;-115.482;2022-09-12T14:23:27;101333.75;;;22.29;61.43
59411;BME280;45215;32.610;-115.482;2022-09-12T14:25:55;101334.41;;;22.40;61.20
59411;BME280;45215;32.610;-115.482;2022-09-12T14:28:24;101334.63;;;21.91;54.08
59411;BME280;45215;32.610;-115.482;2022-09-12T14:31:05;101334.44;;;21.84;58.79
59411;BME280;45215;32.610;-115.482;2022-09-12T14:33:55;101341.81;;;22.06;60.16
59411;BME280;45215;32.610;-115.482;2022-09-12T14:36:46;101339.03;;;22.23;61.05
59411;BME280;45215;32.610;-115.482;2022-09-12T14:41:43;101339.19;;;21.74;54.69
59411;BME280;45215;32.610;-115.482;2022-09-12T14:44:22;101339.81;;;21.84;59.02
59411;BME280;45215;32.610;-115.482;2022-09-12T14:46:49;101337.59;;;22.04;60.67
59411;BME280;45215;32.610;-115.482;2022-09-12T14:49:34;101338.56;;;22.19;60.97
59411;BME280;45215;32.610;-115.482;2022-09-12T14:52:03;101332.75;;;22.31;60.31
59411;BME280;45215;32.610;-115.482;2022-09-12T14:57:04;101336.47;;;21.82;59.21
59411;BME280;45215;32.610;-115.482;2022-09-12T15:04:50;101338.16;;;22.31;58.96
59411;BME280;45215;32.610;-115.482;2022-09-12T15:09:51;101321.59;;;21.86;59.25
59411;BME280;45215;32.610;-115.482;2022-09-12T15:12:17;101324.97;;;22.04;60.37
59411;BME280;45215;32.610;-115.482;2022-09-12T15:14:43;101326.91;;;22.19;61.07
59411;BME280;45215;32.610;-115.482;2022-09-12T15:17:09;101325.69;;;22.21;57.61
59411;BME280;45215;32.610;-115.482;2022-09-12T15:19:36;101324.22;;;21.55;55.87
59411;BME280;45215;32.610;-115.482;2022-09-12T15:22:02;101340.69;;;21.84;59.82
59411;BME280;45215;32.610;-115.482;2022-09-12T15:24:28;101336.59;;;22.05;60.60
59411;BME280;45215;32.610;-115.482;2022-09-12T15:26:54;101334.84;;;22.20;60.93
59411;BME280;45215;32.610;-115.482;2022-09-12T15:29:21;101321.47;;;21.79;54.19
59411;BME280;45215;32.610;-115.482;2022-09-12T15:31:50;101327.75;;;21.64;57.45